createdAt,value
2017-12-12T00:00:39.119Z,7.5
2017-12-12T00:01:38.241Z,7.5
2017-12-12T00:03:36.234Z,7.5
2017-12-12T00:04:35.576Z,7.5
2017-12-12T00:05:34.298Z,7.5
2017-12-12T00:08:32.008Z,7.5
2017-12-12T00:09:30.622Z,7.5
2017-12-12T00:10:29.728Z,7.5
2017-12-12T00:11:29.045Z,7.5
2017-12-12T00:12:28.156Z,7.5
2017-12-12T00:13:26.993Z,7.5
2017-12-12T00:14:26.209Z,7.5
2017-12-12T00:15:25.525Z,7.5
2017-12-12T00:16:24.249Z,7.5
2017-12-12T00:17:23.360Z,7.5
2017-12-12T00:19:21.356Z,7.6
2017-12-12T00:20:20.691Z,7.6
2017-12-12T00:21:19.801Z,7.5
2017-12-12T00:22:19.128Z,7.6
2017-12-12T00:23:17.953Z,7.6
2017-12-12T00:24:17.067Z,7.5
2017-12-12T00:25:16.171Z,7.5
2017-12-12T00:27:14.265Z,7.5
2017-12-12T00:28:13.588Z,7.5
2017-12-12T00:29:12.514Z,7.5
2017-12-12T00:31:10.732Z,7.5
2017-12-12T00:32:09.341Z,7.4
2017-12-12T00:32:39.868Z,7.4
2017-12-12T00:33:10.394Z,7.5
2017-12-12T00:33:40.825Z,7.5
2017-12-12T00:34:11.388Z,7.4
2017-12-12T00:34:42.144Z,7.4
2017-12-12T00:35:12.568Z,7.4
2017-12-12T00:35:43.319Z,7.4
2017-12-12T00:38:03.871Z,7.5
2017-12-12T00:39:03.200Z,7.5
2017-12-12T00:40:02.046Z,7.5
2017-12-12T00:41:01.279Z,7.5
2017-12-12T00:42:00.506Z,7.5
2017-12-12T00:42:59.228Z,7.5
2017-12-12T00:43:58.439Z,7.5
2017-12-12T00:44:57.769Z,7.5
2017-12-12T00:45:28.411Z,7.5
2017-12-12T00:45:58.947Z,7.5
2017-12-12T00:46:29.380Z,7.5
2017-12-12T00:47:54.884Z,7.5
2017-12-12T00:48:53.812Z,7.5
2017-12-12T00:49:53.246Z,7.6
2017-12-12T00:50:52.067Z,7.6
2017-12-12T00:52:50.161Z,7.6
2017-12-12T00:54:48.258Z,7.6
2017-12-12T00:55:47.611Z,7.6
2017-12-12T00:57:45.814Z,7.6
2017-12-12T00:58:44.527Z,7.6
2017-12-12T00:59:43.862Z,7.6
2017-12-12T01:00:43.236Z,7.6
2017-12-12T01:01:41.901Z,7.6
2017-12-12T01:02:41.126Z,7.6
2017-12-12T01:03:39.957Z,7.7
2017-12-12T01:04:39.063Z,7.7
2017-12-12T01:05:38.184Z,7.7
2017-12-12T01:06:37.399Z,7.7
2017-12-12T01:07:36.119Z,7.7
2017-12-12T01:08:35.427Z,7.6
2017-12-12T01:09:34.738Z,7.6
2017-12-12T01:10:33.581Z,7.7
2017-12-12T01:11:32.901Z,7.7
2017-12-12T01:13:30.504Z,7.7
2017-12-12T01:14:01.149Z,7.7
2017-12-12T01:14:31.695Z,7.7
2017-12-12T01:16:28.252Z,7.8
2017-12-12T01:17:27.473Z,7.7
2017-12-12T01:19:25.464Z,7.8
2017-12-12T01:20:24.175Z,7.8
2017-12-12T01:21:23.497Z,7.8
2017-12-12T01:22:22.210Z,7.8
2017-12-12T01:23:21.719Z,7.8
2017-12-12T01:24:20.825Z,7.8
2017-12-12T01:25:20.042Z,7.8
2017-12-12T01:26:18.647Z,7.8
2017-12-12T01:27:18.072Z,7.8
2017-12-12T01:28:17.181Z,7.8
2017-12-12T01:29:16.000Z,7.8
2017-12-12T01:30:15.001Z,7.8
2017-12-12T01:31:14.328Z,7.8
2017-12-12T01:32:13.447Z,7.8
2017-12-12T01:33:12.662Z,7.8
2017-12-12T01:35:10.361Z,7.8
2017-12-12T01:36:09.797Z,7.8
2017-12-12T01:37:08.736Z,7.8
2017-12-12T01:38:08.167Z,7.8
2017-12-12T01:39:06.774Z,7.8
2017-12-12T01:40:06.095Z,7.9
2017-12-12T01:41:05.419Z,7.9
2017-12-12T01:42:04.030Z,7.9
2017-12-12T01:43:03.251Z,7.9
2017-12-12T01:44:02.592Z,7.9
2017-12-12T01:45:01.410Z,7.9
2017-12-12T01:46:00.394Z,8
2017-12-12T01:46:59.731Z,8
2017-12-12T01:47:58.849Z,8
2017-12-12T01:48:58.073Z,8
2017-12-12T01:50:55.890Z,8
2017-12-12T01:51:55.113Z,8
2017-12-12T01:52:54.048Z,8
2017-12-12T01:53:53.447Z,7.9
2017-12-12T01:54:52.280Z,7.9
2017-12-12T01:56:50.606Z,7.9
2017-12-12T01:58:48.334Z,7.9
2017-12-12T01:59:47.669Z,7.9
2017-12-12T02:00:46.673Z,7.9
2017-12-12T02:01:45.900Z,7.9
2017-12-12T02:02:45.031Z,7.9
2017-12-12T02:03:43.757Z,7.9
2017-12-12T02:04:43.378Z,7.9
2017-12-12T02:05:42.304Z,7.9
2017-12-12T02:06:41.124Z,7.9
2017-12-12T02:07:40.338Z,7.9
2017-12-12T02:08:39.272Z,7.9
2017-12-12T02:09:38.380Z,7.9
2017-12-12T02:10:37.598Z,7.9
2017-12-12T02:11:07.912Z,7.9
2017-12-12T02:12:35.833Z,7.9
2017-12-12T02:13:06.359Z,7.9
2017-12-12T02:13:36.791Z,7.9
2017-12-12T02:14:33.785Z,7.9
2017-12-12T02:16:31.987Z,7.9
2017-12-12T02:17:31.098Z,7.9
2017-12-12T02:18:30.326Z,7.9
2017-12-12T02:19:29.648Z,7.9
2017-12-12T02:20:28.462Z,7.9
2017-12-12T02:21:27.676Z,7.9
2017-12-12T02:21:58.207Z,7.9
2017-12-12T02:23:25.739Z,7.9
2017-12-12T02:25:23.731Z,7.9
2017-12-12T02:26:22.947Z,7.9
2017-12-12T02:27:21.772Z,7.8
2017-12-12T02:28:20.775Z,7.8
2017-12-12T02:29:20.494Z,7.8
2017-12-12T02:30:19.311Z,7.8
2017-12-12T02:31:18.525Z,7.8
2017-12-12T02:32:17.453Z,7.8
2017-12-12T02:33:16.674Z,7.8
2017-12-12T02:34:15.603Z,7.8
2017-12-12T02:35:14.717Z,7.8
2017-12-12T02:36:14.043Z,7.8
2017-12-12T02:37:12.865Z,7.8
2017-12-12T02:38:11.690Z,7.8
2017-12-12T02:39:11.303Z,7.8
2017-12-12T02:40:10.231Z,7.8
2017-12-12T02:41:09.360Z,7.8
2017-12-12T02:41:39.809Z,7.8
2017-12-12T02:42:10.367Z,7.8
2017-12-12T02:44:06.646Z,7.8
2017-12-12T02:45:05.478Z,7.8
2017-12-12T02:46:04.703Z,7.8
2017-12-12T02:47:03.422Z,7.8
2017-12-12T02:48:02.760Z,7.8
2017-12-12T02:49:02.098Z,7.8
2017-12-12T02:50:00.925Z,7.8
2017-12-12T02:51:00.166Z,7.8
2017-12-12T02:51:30.598Z,7.8
2017-12-12T02:52:01.357Z,7.7
2017-12-12T02:52:31.498Z,7.7
2017-12-12T02:53:02.149Z,7.7
2017-12-12T02:53:32.799Z,7.7
2017-12-12T02:54:03.336Z,7.7
2017-12-12T02:54:33.995Z,7.7
2017-12-12T02:55:55.581Z,7.8
2017-12-12T02:56:54.815Z,7.8
2017-12-12T02:57:53.426Z,7.8
2017-12-12T02:58:52.755Z,7.8
2017-12-12T02:59:51.584Z,7.8
2017-12-12T03:00:50.903Z,7.8
2017-12-12T03:01:49.837Z,7.8
2017-12-12T03:02:20.266Z,7.8
2017-12-12T03:03:48.248Z,7.8
2017-12-12T03:04:18.480Z,7.8
2017-12-12T03:04:49.017Z,7.8
2017-12-12T03:05:19.553Z,7.8
2017-12-12T03:06:45.649Z,7.8
2017-12-12T03:07:44.254Z,7.8
2017-12-12T03:08:43.256Z,7.8
2017-12-12T03:09:42.469Z,7.8
2017-12-12T03:10:41.892Z,7.8
2017-12-12T03:12:40.090Z,7.8
2017-12-12T03:13:38.909Z,7.8
2017-12-12T03:14:37.813Z,7.8
2017-12-12T03:16:36.428Z,7.8
2017-12-12T03:17:35.042Z,7.8
2017-12-12T03:18:34.053Z,7.8
2017-12-12T03:19:33.381Z,7.8
2017-12-12T03:20:32.502Z,7.8
2017-12-12T03:21:31.948Z,7.8
2017-12-12T03:22:30.668Z,7.8
2017-12-12T03:23:29.896Z,7.8
2017-12-12T03:24:29.008Z,7.8
2017-12-12T03:25:27.753Z,7.8
2017-12-12T03:26:26.867Z,7.8
2017-12-12T03:27:26.198Z,7.8
2017-12-12T03:28:25.016Z,7.8
2017-12-12T03:29:24.231Z,7.8
2017-12-12T03:30:23.460Z,7.8
2017-12-12T03:31:22.684Z,7.8
2017-12-12T03:33:20.511Z,7.8
2017-12-12T03:34:19.943Z,7.8
2017-12-12T03:35:18.555Z,7.8
2017-12-12T03:36:17.884Z,7.8
2017-12-12T03:37:16.710Z,7.7
2017-12-12T03:38:15.941Z,7.7
2017-12-12T03:39:15.154Z,7.7
2017-12-12T03:40:14.368Z,7.7
2017-12-12T03:41:13.191Z,7.7
2017-12-12T03:42:12.200Z,7.7
2017-12-12T03:42:42.626Z,7.7
2017-12-12T03:43:13.155Z,7.7
2017-12-12T03:43:43.473Z,7.7
2017-12-12T03:44:14.011Z,7.7
2017-12-12T03:44:44.231Z,7.7
2017-12-12T03:45:14.872Z,7.7
2017-12-12T03:45:45.508Z,7.7
2017-12-12T03:47:07.661Z,7.7
2017-12-12T03:48:06.662Z,7.7
2017-12-12T03:49:06.074Z,7.7
2017-12-12T03:50:04.989Z,7.7
2017-12-12T03:51:04.412Z,7.7
2017-12-12T03:52:02.904Z,7.7
2017-12-12T03:53:02.216Z,7.7
2017-12-12T03:54:01.421Z,7.7
2017-12-12T03:55:00.243Z,7.7
2017-12-12T03:55:59.741Z,7.7
2017-12-12T03:56:58.557Z,7.8
2017-12-12T03:57:58.036Z,7.8
2017-12-12T03:58:56.961Z,7.8
2017-12-12T03:59:55.660Z,7.8
2017-12-12T04:00:54.978Z,7.7
2017-12-12T04:01:53.798Z,7.7
2017-12-12T04:02:53.211Z,7.8
2017-12-12T04:03:52.312Z,7.8
2017-12-12T04:04:51.627Z,7.8
2017-12-12T04:05:50.618Z,7.8
2017-12-12T04:06:49.319Z,7.7
2017-12-12T04:07:48.641Z,7.8
2017-12-12T04:08:47.751Z,7.8
2017-12-12T04:09:47.070Z,7.7
2017-12-12T04:11:44.549Z,7.7
2017-12-12T04:12:44.042Z,7.7
2017-12-12T04:13:43.247Z,7.7
2017-12-12T04:14:41.949Z,7.7
2017-12-12T04:15:41.260Z,7.7
2017-12-12T04:16:40.470Z,7.6
2017-12-12T04:17:39.398Z,7.6
2017-12-12T04:18:38.611Z,7.6
2017-12-12T04:20:36.596Z,7.5
2017-12-12T04:21:35.901Z,7.6
2017-12-12T04:22:34.910Z,7.6
2017-12-12T04:23:34.126Z,7.6
2017-12-12T04:24:32.932Z,7.6
2017-12-12T04:25:32.234Z,7.6
2017-12-12T04:26:02.756Z,7.6
2017-12-12T04:26:32.881Z,7.6
2017-12-12T04:27:30.361Z,7.6
2017-12-12T04:29:28.546Z,7.6
2017-12-12T04:30:27.461Z,7.6
2017-12-12T04:31:26.463Z,7.6
2017-12-12T04:32:25.687Z,7.7
2017-12-12T04:33:24.495Z,7.7
2017-12-12T04:34:23.594Z,7.6
2017-12-12T04:35:22.798Z,7.6
2017-12-12T04:39:19.147Z,7.7
2017-12-12T04:40:18.351Z,7.7
2017-12-12T04:40:48.763Z,7.7
2017-12-12T04:43:15.640Z,7.6
2017-12-12T04:44:14.740Z,7.6
2017-12-12T04:46:12.720Z,7.6
2017-12-12T04:47:11.714Z,7.6
2017-12-12T04:50:08.871Z,7.6
2017-12-12T04:51:08.472Z,7.6
2017-12-12T04:52:07.179Z,7.6
2017-12-12T04:53:06.492Z,7.6
2017-12-12T04:54:05.590Z,7.6
2017-12-12T04:55:04.402Z,7.6
2017-12-12T04:56:03.606Z,7.6
2017-12-12T04:57:02.593Z,7.6
2017-12-12T04:58:01.796Z,7.5
2017-12-12T04:59:00.611Z,7.5
2017-12-12T04:59:59.926Z,7.5
2017-12-12T05:02:39.704Z,7.5
2017-12-12T05:03:56.037Z,7.4
2017-12-12T05:04:55.480Z,7.4
2017-12-12T05:05:54.411Z,7.4
2017-12-12T05:06:53.841Z,7.4
2017-12-12T05:07:52.558Z,7.4
2017-12-12T05:08:51.784Z,7.3
2017-12-12T05:09:50.505Z,7.3
2017-12-12T05:10:49.720Z,7.4
2017-12-12T05:11:48.939Z,7.4
2017-12-12T05:12:48.049Z,7.4
2017-12-12T05:13:46.977Z,7.4
2017-12-12T05:14:46.199Z,7.5
2017-12-12T05:15:45.014Z,7.5
2017-12-12T05:16:44.521Z,7.4
2017-12-12T05:17:43.131Z,7.5
2017-12-12T05:18:42.287Z,7.4
2017-12-12T05:19:41.620Z,7.4
2017-12-12T05:20:40.732Z,7.4
2017-12-12T05:21:11.183Z,7.4
2017-12-12T05:21:41.930Z,7.3
2017-12-12T05:22:11.950Z,7.3
2017-12-12T05:22:42.483Z,7.3
2017-12-12T05:23:12.806Z,7.3
2017-12-12T05:23:43.333Z,7.3
2017-12-12T05:24:13.862Z,7.3
2017-12-12T05:25:36.012Z,7.3
2017-12-12T05:26:35.331Z,7.3
2017-12-12T05:27:34.041Z,7.3
2017-12-12T05:28:33.252Z,7.2
2017-12-12T05:29:32.078Z,7.2
2017-12-12T05:30:31.409Z,7.2
2017-12-12T05:32:29.295Z,7.2
2017-12-12T05:33:00.036Z,7.2
2017-12-12T05:33:30.464Z,7.2
2017-12-12T05:34:00.595Z,7.2
2017-12-12T05:35:26.701Z,7.2
2017-12-12T05:36:26.035Z,7.2
2017-12-12T05:37:24.857Z,7.3
2017-12-12T05:40:22.243Z,7.2
2017-12-12T05:41:21.067Z,7.2
2017-12-12T05:43:19.560Z,7.2
2017-12-12T05:46:16.683Z,7.2
2017-12-12T05:48:14.680Z,7.1
2017-12-12T05:50:12.898Z,7.2
2017-12-12T05:51:12.136Z,7.2
2017-12-12T05:52:11.070Z,7.2
2017-12-12T05:53:10.398Z,7.2
2017-12-12T05:54:09.113Z,7.1
2017-12-12T05:55:08.338Z,7.1
2017-12-12T05:56:07.157Z,7.1
2017-12-12T05:57:06.401Z,7.1
2017-12-12T05:58:05.724Z,7.1
2017-12-12T05:59:04.441Z,7.1
2017-12-12T06:00:03.768Z,7.1
2017-12-12T06:01:02.701Z,7.1
2017-12-12T06:01:33.340Z,7.1
2017-12-12T06:02:03.869Z,7.1
2017-12-12T06:02:34.017Z,7.1
2017-12-12T06:03:04.545Z,7.1
2017-12-12T06:03:34.970Z,7.1
2017-12-12T06:04:59.243Z,7.1
2017-12-12T06:05:29.782Z,7.1
2017-12-12T06:05:59.808Z,7.1
2017-12-12T06:06:57.009Z,7.1
2017-12-12T06:07:56.330Z,7.1
2017-12-12T06:08:55.159Z,7.1
2017-12-12T06:10:53.264Z,7.1
2017-12-12T06:11:52.593Z,7.1
2017-12-12T06:12:22.622Z,7.1
2017-12-12T06:12:53.355Z,7.1
2017-12-12T06:13:23.889Z,7.1
2017-12-12T06:13:54.130Z,7.1
2017-12-12T06:14:24.548Z,7.1
2017-12-12T06:15:48.929Z,7.1
2017-12-12T06:16:48.267Z,7.1
2017-12-12T06:17:46.770Z,7.1
2017-12-12T06:18:45.997Z,7
2017-12-12T06:19:45.632Z,7
2017-12-12T06:20:44.136Z,7
2017-12-12T06:21:43.461Z,7
2017-12-12T06:22:42.280Z,7
2017-12-12T06:24:40.594Z,7
2017-12-12T06:26:38.913Z,7
2017-12-12T06:27:37.926Z,6.9
2017-12-12T06:28:36.760Z,6.9
2017-12-12T06:29:36.092Z,6.9
2017-12-12T06:30:34.825Z,6.9
2017-12-12T06:31:34.263Z,6.9
2017-12-12T06:32:33.481Z,6.9
2017-12-12T06:33:32.307Z,6.9
2017-12-12T06:34:31.422Z,6.9
2017-12-12T06:35:30.537Z,6.9
2017-12-12T06:36:29.251Z,6.9
2017-12-12T06:37:28.472Z,6.9
2017-12-12T06:39:26.782Z,6.9
2017-12-12T06:40:25.400Z,6.9
2017-12-12T06:41:24.626Z,6.9
2017-12-12T06:42:23.740Z,6.9
2017-12-12T06:43:22.973Z,6.9
2017-12-12T06:44:22.299Z,6.9
2017-12-12T06:45:21.228Z,6.9
2017-12-12T06:46:20.048Z,6.9
2017-12-12T06:47:19.368Z,6.9
2017-12-12T06:48:18.085Z,6.9
2017-12-12T06:49:17.299Z,6.9
2017-12-12T06:50:16.733Z,6.8
2017-12-12T06:51:15.444Z,6.8
2017-12-12T06:52:14.774Z,6.8
2017-12-12T06:53:13.501Z,6.8
2017-12-12T06:54:12.518Z,6.7
2017-12-12T06:54:42.948Z,6.7
2017-12-12T06:56:10.856Z,6.7
2017-12-12T06:57:10.185Z,6.7
2017-12-12T06:58:09.088Z,6.6
2017-12-12T06:59:07.805Z,6.5
2017-12-12T07:00:07.136Z,6.5
2017-12-12T07:01:06.473Z,6.4
2017-12-12T07:02:05.296Z,6.3
2017-12-12T07:03:04.307Z,6.2
2017-12-12T07:04:03.646Z,6.1
2017-12-12T07:05:02.483Z,6.1
2017-12-12T07:06:01.767Z,6
2017-12-12T07:07:00.647Z,6
2017-12-12T07:07:59.769Z,5.9
2017-12-12T07:08:58.587Z,5.8
2017-12-12T07:09:57.920Z,5.8
2017-12-12T07:10:56.740Z,5.7
2017-12-12T07:11:56.241Z,5.7
2017-12-12T07:12:54.746Z,5.7
2017-12-12T07:13:53.861Z,5.7
2017-12-12T07:14:53.078Z,5.6
2017-12-12T07:15:52.188Z,5.6
2017-12-12T07:16:51.413Z,5.6
2017-12-12T07:17:50.233Z,5.6
2017-12-12T07:18:49.563Z,5.5
2017-12-12T07:19:48.284Z,5.5
2017-12-12T07:20:47.504Z,5.5
2017-12-12T07:21:46.619Z,5.5
2017-12-12T07:22:45.729Z,5.5
2017-12-12T07:24:43.828Z,5.5
2017-12-12T07:26:41.921Z,5.4
2017-12-12T07:27:40.748Z,5.4
2017-12-12T07:28:39.969Z,5.3
2017-12-12T07:29:39.184Z,5.2
2017-12-12T07:30:38.002Z,5.2
2017-12-12T07:32:36.205Z,5.2
2017-12-12T07:33:35.130Z,5.1
2017-12-12T07:35:33.234Z,5.1
2017-12-12T07:36:32.447Z,5.1
2017-12-12T07:37:31.563Z,5.1
2017-12-12T07:38:30.391Z,5.1
2017-12-12T07:39:29.611Z,5
2017-12-12T07:40:00.211Z,5
2017-12-12T07:40:30.337Z,5
2017-12-12T07:41:27.452Z,5
2017-12-12T07:42:26.462Z,4.9
2017-12-12T07:43:25.791Z,4.9
2017-12-12T07:44:25.036Z,4.9
2017-12-12T07:46:22.746Z,4.8
2017-12-12T07:48:20.955Z,4.7
2017-12-12T07:49:20.294Z,4.7
2017-12-12T07:49:50.543Z,4.7
2017-12-12T07:50:21.080Z,4.7
2017-12-12T07:50:51.624Z,4.7
2017-12-12T07:51:22.220Z,4.6
2017-12-12T07:51:52.863Z,4.6
2017-12-12T07:52:23.398Z,4.6
2017-12-12T07:52:54.142Z,4.6
2017-12-12T07:54:15.104Z,4.5
2017-12-12T07:55:14.327Z,4.5
2017-12-12T07:56:13.448Z,4.5
2017-12-12T07:57:12.050Z,4.5
2017-12-12T07:58:11.375Z,4.5
2017-12-12T07:59:10.693Z,4.5
2017-12-12T08:00:09.510Z,4.5
2017-12-12T08:02:07.713Z,4.4
2017-12-12T08:03:06.648Z,4.4
2017-12-12T08:05:04.852Z,4.4
2017-12-12T08:06:03.567Z,4.4
2017-12-12T08:07:02.888Z,4.4
2017-12-12T08:08:02.117Z,4.4
2017-12-12T08:09:00.951Z,4.3
2017-12-12T08:09:59.663Z,4.3
2017-12-12T08:10:59.053Z,4.4
2017-12-12T08:11:57.872Z,4.3
2017-12-12T08:12:57.201Z,4.3
2017-12-12T08:13:56.031Z,4.3
2017-12-12T08:14:55.034Z,4.3
2017-12-12T08:15:54.153Z,4.3
2017-12-12T08:16:52.968Z,4.3
2017-12-12T08:17:52.082Z,4.3
2017-12-12T08:18:51.192Z,4.3
2017-12-12T08:19:50.407Z,4.3
2017-12-12T08:20:20.838Z,4.3
2017-12-12T08:20:51.268Z,4.3
2017-12-12T08:21:48.368Z,4.3
2017-12-12T08:22:47.295Z,4.3
2017-12-12T08:23:46.616Z,4.3
2017-12-12T08:24:45.545Z,4.3
2017-12-12T08:25:44.157Z,4.3
2017-12-12T08:27:42.357Z,4.2
2017-12-12T08:28:41.575Z,4.3
2017-12-12T08:29:40.685Z,4.3
2017-12-12T08:30:11.439Z,4.3
2017-12-12T08:30:41.873Z,4.3
2017-12-12T08:31:12.412Z,4.3
2017-12-12T08:31:42.944Z,4.3
2017-12-12T08:32:13.379Z,4.3
2017-12-12T08:32:43.910Z,4.3
2017-12-12T08:33:14.447Z,4.3
2017-12-12T08:34:35.984Z,4.2
2017-12-12T08:35:34.711Z,4.3
2017-12-12T08:36:33.895Z,4.3
2017-12-12T08:37:33.023Z,4.2
2017-12-12T08:38:31.755Z,4.2
2017-12-12T08:39:30.479Z,4.2
2017-12-12T08:40:29.810Z,4.2
2017-12-12T08:41:00.459Z,4.2
2017-12-12T08:42:27.870Z,4.2
2017-12-12T08:43:26.804Z,4.2
2017-12-12T08:44:26.022Z,4.2
2017-12-12T08:45:24.846Z,4.2
2017-12-12T08:46:24.070Z,4.2
2017-12-12T08:47:22.792Z,4.2
2017-12-12T08:48:22.113Z,4.2
2017-12-12T08:49:20.941Z,4.2
2017-12-12T08:50:20.157Z,4.2
2017-12-12T08:51:19.262Z,4.2
2017-12-12T08:52:18.091Z,4.2
2017-12-12T08:53:17.468Z,4.2
2017-12-12T08:54:16.092Z,4.2
2017-12-12T08:56:14.302Z,4.3
2017-12-12T08:57:13.122Z,4.2
2017-12-12T08:58:12.443Z,4.3
2017-12-12T08:59:11.264Z,4.3
2017-12-12T09:00:10.373Z,4.3
2017-12-12T09:01:09.584Z,4.3
2017-12-12T09:02:08.520Z,4.2
2017-12-12T09:04:06.617Z,4.3
2017-12-12T09:05:05.444Z,4.3
2017-12-12T09:06:04.654Z,4.3
2017-12-12T09:07:03.771Z,4.3
2017-12-12T09:08:02.586Z,4.3
2017-12-12T09:09:01.716Z,4.3
2017-12-12T09:10:00.691Z,4.3
2017-12-12T09:11:00.021Z,4.3
2017-12-12T09:11:58.847Z,4.3
2017-12-12T09:12:29.492Z,4.3
2017-12-12T09:13:56.957Z,4.3
2017-12-12T09:15:54.767Z,4.3
2017-12-12T09:16:54.102Z,4.3
2017-12-12T09:18:51.707Z,4.3
2017-12-12T09:19:50.808Z,4.3
2017-12-12T09:20:49.925Z,4.3
2017-12-12T09:21:49.033Z,4.3
2017-12-12T09:22:47.875Z,4.3
2017-12-12T09:23:17.902Z,4.3
2017-12-12T09:23:48.439Z,4.4
2017-12-12T09:24:46.255Z,4.4
2017-12-12T09:25:45.090Z,4.4
2017-12-12T09:26:44.198Z,4.4
2017-12-12T09:27:43.126Z,4.4
2017-12-12T09:28:42.459Z,4.4
2017-12-12T09:29:41.281Z,4.4
2017-12-12T09:30:40.501Z,4.3
2017-12-12T09:31:39.104Z,4.3
2017-12-12T09:33:37.356Z,4.3
2017-12-12T09:34:36.235Z,4.3
2017-12-12T09:35:35.566Z,4.3
2017-12-12T09:36:34.283Z,4.3
2017-12-12T09:37:33.504Z,4.3
2017-12-12T09:38:32.405Z,4.3
2017-12-12T09:39:31.622Z,4.3
2017-12-12T09:40:30.627Z,4.3
2017-12-12T09:42:28.439Z,4.3
2017-12-12T09:43:27.657Z,4.3
2017-12-12T09:44:26.474Z,4.3
2017-12-12T09:45:25.689Z,4.3
2017-12-12T09:46:24.505Z,4.3
2017-12-12T09:47:23.614Z,4.3
2017-12-12T09:48:22.722Z,4.3
2017-12-12T09:49:21.644Z,4.3
2017-12-12T09:49:52.282Z,4.3
2017-12-12T09:50:22.802Z,4.3
2017-12-12T09:51:19.787Z,4.2
2017-12-12T09:52:19.010Z,4.3
2017-12-12T09:53:17.624Z,4.3
2017-12-12T09:54:16.950Z,4.2
2017-12-12T09:55:16.175Z,4.2
2017-12-12T09:56:14.995Z,4.2
2017-12-12T09:57:13.706Z,4.3
2017-12-12T09:58:12.929Z,4.3
2017-12-12T09:59:11.859Z,4.3
2017-12-12T10:00:11.082Z,4.3
2017-12-12T10:01:10.088Z,4.3
2017-12-12T10:02:09.023Z,4.3
2017-12-12T10:03:07.952Z,4.3
2017-12-12T10:04:07.180Z,4.3
2017-12-12T10:05:06.109Z,4.3
2017-12-12T10:06:05.234Z,4.3
2017-12-12T10:07:04.350Z,4.3
2017-12-12T10:07:34.891Z,4.3
2017-12-12T10:08:05.430Z,4.3
2017-12-12T10:08:35.689Z,4.3
2017-12-12T10:09:05.947Z,4.3
2017-12-12T10:10:01.249Z,4.3
2017-12-12T10:11:00.223Z,4.3
2017-12-12T10:11:59.338Z,4.3
2017-12-12T10:12:58.460Z,4.3
2017-12-12T10:13:57.189Z,4.3
2017-12-12T10:14:56.407Z,4.4
2017-12-12T10:15:55.632Z,4.4
2017-12-12T10:16:54.351Z,4.4
2017-12-12T10:17:53.669Z,4.4
2017-12-12T10:18:52.491Z,4.4
2017-12-12T10:19:51.616Z,4.4
2017-12-12T10:21:49.422Z,4.4
2017-12-12T10:22:48.752Z,4.4
2017-12-12T10:23:47.576Z,4.4
2017-12-12T10:24:46.691Z,4.5
2017-12-12T10:25:46.013Z,4.5
2017-12-12T10:26:44.837Z,4.5
2017-12-12T10:27:43.669Z,4.5
2017-12-12T10:29:41.980Z,4.5
2017-12-12T10:30:40.701Z,4.5
2017-12-12T10:31:40.032Z,4.5
2017-12-12T10:32:38.642Z,4.5
2017-12-12T10:33:38.055Z,4.5
2017-12-12T10:34:36.729Z,4.5
2017-12-12T10:35:36.157Z,4.5
2017-12-12T10:37:33.860Z,4.5
2017-12-12T10:38:33.290Z,4.5
2017-12-12T10:39:32.112Z,4.5
2017-12-12T10:40:31.456Z,4.5
2017-12-12T10:41:29.945Z,4.5
2017-12-12T10:42:00.483Z,4.5
2017-12-12T10:42:31.062Z,4.5
2017-12-12T10:43:28.269Z,4.5
2017-12-12T10:44:27.094Z,4.5
2017-12-12T10:45:26.427Z,4.5
2017-12-12T10:46:25.144Z,4.5
2017-12-12T10:47:24.365Z,4.5
2017-12-12T10:47:54.695Z,4.5
2017-12-12T10:48:25.251Z,4.5
2017-12-12T10:48:55.740Z,4.5
2017-12-12T10:50:21.248Z,4.6
2017-12-12T10:51:20.374Z,4.6
2017-12-12T10:52:19.597Z,4.6
2017-12-12T10:53:18.519Z,4.7
2017-12-12T10:54:17.526Z,4.7
2017-12-12T10:55:16.253Z,4.6
2017-12-12T10:56:15.570Z,4.6
2017-12-12T10:57:14.387Z,4.6
2017-12-12T10:58:13.495Z,4.5
2017-12-12T10:59:12.835Z,4.5
2017-12-12T11:00:11.822Z,4.5
2017-12-12T11:02:10.024Z,4.5
2017-12-12T11:03:08.733Z,4.4
2017-12-12T11:04:07.548Z,4.5
2017-12-12T11:05:06.879Z,4.4
2017-12-12T11:06:05.604Z,4.4
2017-12-12T11:08:03.712Z,4.4
2017-12-12T11:10:01.820Z,4.4
2017-12-12T11:12:59.312Z,4.4
2017-12-12T11:13:58.139Z,4.4
2017-12-12T11:14:57.363Z,4.4
2017-12-12T11:15:56.467Z,4.4
2017-12-12T11:16:55.177Z,4.5
2017-12-12T11:17:54.167Z,4.5
2017-12-12T11:18:53.274Z,4.5
2017-12-12T11:19:51.893Z,4.6
2017-12-12T11:20:51.414Z,4.6
2017-12-12T11:21:50.642Z,4.6
2017-12-12T11:22:49.467Z,4.6
2017-12-12T11:23:48.085Z,4.7
2017-12-12T11:24:47.409Z,4.7
2017-12-12T11:25:46.524Z,4.7
2017-12-12T11:26:45.753Z,4.7
2017-12-12T11:28:43.350Z,4.8
2017-12-12T11:29:42.363Z,4.8
2017-12-12T11:31:40.510Z,4.8
2017-12-12T11:32:39.727Z,4.8
2017-12-12T11:34:37.927Z,4.8
2017-12-12T11:35:36.747Z,4.7
2017-12-12T11:36:35.642Z,4.7
2017-12-12T11:37:34.974Z,4.8
2017-12-12T11:38:33.799Z,4.8
2017-12-12T11:39:33.009Z,4.8
2017-12-12T11:40:31.936Z,4.8
2017-12-12T11:41:02.362Z,4.8
2017-12-12T11:42:29.867Z,4.9
2017-12-12T11:43:29.112Z,4.9
2017-12-12T11:44:27.876Z,5
2017-12-12T11:45:26.991Z,5
2017-12-12T11:46:26.256Z,5
2017-12-12T11:48:24.368Z,5.1
2017-12-12T11:49:22.977Z,5.1
2017-12-12T11:50:22.293Z,5.1
2017-12-12T11:51:21.130Z,5
2017-12-12T11:52:20.561Z,5
2017-12-12T11:54:18.161Z,5
2017-12-12T11:55:17.547Z,5
2017-12-12T11:56:16.385Z,5
2017-12-12T11:57:15.497Z,5
2017-12-12T11:58:14.340Z,5
2017-12-12T12:00:12.551Z,4.9
2017-12-12T12:01:11.379Z,5
2017-12-12T12:02:10.606Z,5
2017-12-12T12:03:09.543Z,5
2017-12-12T12:04:08.879Z,5
2017-12-12T12:05:07.597Z,5
2017-12-12T12:05:37.742Z,5
2017-12-12T12:07:05.655Z,5
2017-12-12T12:08:05.083Z,4.9
2017-12-12T12:09:03.791Z,4.9
2017-12-12T12:10:03.109Z,5
2017-12-12T12:11:01.937Z,5
2017-12-12T12:12:00.869Z,5
2017-12-12T12:13:00.305Z,4.9
2017-12-12T12:13:59.125Z,4.9
2017-12-12T12:14:57.959Z,4.9
2017-12-12T12:15:57.282Z,4.9
2017-12-12T12:16:27.830Z,4.9
2017-12-12T12:16:58.444Z,4.9
2017-12-12T12:17:28.989Z,4.9
2017-12-12T12:18:54.326Z,5
2017-12-12T12:19:53.545Z,5
2017-12-12T12:20:52.364Z,5
2017-12-12T12:21:51.076Z,4.9
2017-12-12T12:22:50.512Z,4.9
2017-12-12T12:23:49.232Z,4.9
2017-12-12T12:24:48.670Z,4.9
2017-12-12T12:25:47.779Z,4.8
2017-12-12T12:26:46.489Z,4.8
2017-12-12T12:27:45.815Z,4.8
2017-12-12T12:29:43.808Z,4.8
2017-12-12T12:30:42.525Z,4.8
2017-12-12T12:31:41.751Z,4.8
2017-12-12T12:32:40.571Z,4.8
2017-12-12T12:34:38.568Z,4.8
2017-12-12T12:36:37.164Z,4.7
2017-12-12T12:37:35.880Z,4.7
2017-12-12T12:40:32.856Z,4.7
2017-12-12T12:42:31.178Z,4.7
2017-12-12T12:43:30.018Z,4.7
2017-12-12T12:44:29.229Z,4.7
2017-12-12T12:45:28.445Z,4.7
2017-12-12T12:46:27.384Z,4.7
2017-12-12T12:47:26.259Z,4.6
2017-12-12T12:48:25.082Z,4.6
2017-12-12T12:50:23.341Z,4.7
2017-12-12T12:51:22.555Z,4.7
2017-12-12T12:52:21.055Z,4.7
2017-12-12T12:53:20.275Z,4.7
2017-12-12T12:54:19.497Z,4.7
2017-12-12T12:55:18.331Z,4.7
2017-12-12T12:56:17.811Z,4.7
2017-12-12T12:56:47.947Z,4.7
2017-12-12T12:57:18.714Z,4.7
2017-12-12T12:57:49.033Z,4.7
2017-12-12T12:58:19.567Z,4.7
2017-12-12T12:58:50.218Z,4.7
2017-12-12T12:59:20.647Z,4.7
2017-12-12T12:59:50.966Z,4.7
2017-12-12T13:01:12.546Z,4.6
2017-12-12T13:02:11.866Z,4.7
2017-12-12T13:03:10.579Z,4.6
2017-12-12T13:04:09.696Z,4.6
2017-12-12T13:07:07.075Z,4.6
2017-12-12T13:09:04.789Z,4.7
2017-12-12T13:10:04.119Z,4.7
2017-12-12T13:11:02.839Z,4.7
2017-12-12T13:12:02.228Z,4.7
2017-12-12T13:13:01.049Z,4.7
2017-12-12T13:14:00.381Z,4.7
2017-12-12T13:14:59.207Z,4.7
2017-12-12T13:15:58.035Z,4.7
2017-12-12T13:16:57.258Z,4.7
2017-12-12T13:17:56.500Z,4.7
2017-12-12T13:18:55.437Z,4.7
2017-12-12T13:19:54.262Z,4.7
2017-12-12T13:20:53.197Z,4.7
2017-12-12T13:21:52.208Z,4.7
2017-12-12T13:22:51.430Z,4.7
2017-12-12T13:23:50.152Z,4.7
2017-12-12T13:25:48.367Z,4.7
2017-12-12T13:26:47.377Z,4.7
2017-12-12T13:27:46.709Z,4.7
2017-12-12T13:28:45.608Z,4.7
2017-12-12T13:29:44.703Z,4.7
2017-12-12T13:30:43.531Z,4.7
2017-12-12T13:31:42.845Z,4.7
2017-12-12T13:32:41.623Z,4.7
2017-12-12T13:33:40.955Z,4.7
2017-12-12T13:34:39.669Z,4.7
2017-12-12T13:35:38.879Z,4.7
2017-12-12T13:36:37.878Z,4.7
2017-12-12T13:37:36.825Z,4.7
2017-12-12T13:38:07.249Z,4.7
2017-12-12T13:38:37.889Z,4.7
2017-12-12T13:39:08.311Z,4.7
2017-12-12T13:40:33.989Z,4.7
2017-12-12T13:41:33.204Z,4.7
2017-12-12T13:42:32.209Z,4.7
2017-12-12T13:44:30.302Z,4.7
